Flight Track Log - Related Links

Times and Time Zones

All times are in EST time to prevent confusion due to time zone crossing. See the SKW5550 flight status page for this flight to view local times or setup timezone preferences in your user account.

Time Position Orientation Groundspeed Altitude Reporting Facility
EST Latitude Longitude Course Direction KTS MPH feet Rate Location/Type
Sun 07:54:40 AM 44.5069 -109.0511 143° Southeast 151 174 6,500  Level Salt Lake Center
Sun 07:55:43 AM 44.4736 -109.0161 143° Southeast 249 287 8,300 2,350 Climbing Salt Lake Center
Sun 07:56:40 AM 44.5231 -108.9758 30° Northeast 239 275 11,200 2,797 Climbing Salt Lake Center
Sun 07:57:41 AM 44.5764 -108.9497 19° North 244 281 13,800 1,950 Climbing Salt Lake Center
Sun 07:58:40 AM 44.5478 -108.8414 110° East 310 357 15,100 1,800 Climbing Salt Lake Center
Sun 07:59:41 AM 44.4664 -108.7706 148° Southeast 345 397 17,400 2,016 Climbing Salt Lake Center
Sun 08:00:42 AM 44.3847 -108.6964 147° Southeast 348 400 19,200 1,785 Climbing Salt Lake Center
Sun 08:01:42 AM 44.2806 -108.6033 147° Southeast 365 420 21,000 1,785 Climbing Salt Lake Center
Sun 08:02:43 AM 44.1897 -108.5244 148° Southeast 379 436 22,800 1,550 Climbing Salt Lake Center
Sun 08:03:42 AM 44.0986 -108.4453 148° Southeast 387 445 24,100 1,250 Climbing Salt Lake Center
Sun 08:04:43 AM 44.0033 -108.3633 148° Southeast 400 460 25,300 1,311 Climbing Salt Lake Center
Sun 08:05:41 AM 43.9061 -108.2783 148° Southeast 412 474 26,700 1,322 Climbing Salt Lake Center
Sun 08:06:41 AM 43.8078 -108.1933 148° Southeast 417 480 27,900 850 Climbing Salt Lake Center
Sun 08:07:41 AM 43.7089 -108.1067 148° Southeast 423 487 28,400 446 Climbing Salt Lake Center
Sun 08:08:42 AM 43.6022 -108.0167 149° Southeast 445 512 28,800 488 Climbing Salt Lake Center
Sun 08:09:44 AM 43.4947 -107.9231 148° Southeast 458 527 29,400 600 Climbing Salt Lake Center
Sun 08:10:42 AM 43.3853 -107.8283 148° Southeast 465 535 30,000 661 Climbing Salt Lake Center
Sun 08:11:42 AM 43.2750 -107.7353 148° Southeast 466 536 30,700 500 Climbing Salt Lake Center
Sun 08:12:42 AM 43.1656 -107.6428 148° Southeast 465 535 31,000 150 Climbing Salt Lake Center
Sun 08:13:42 AM 43.0519 -107.5486 149° Southeast 476 548 31,000  Level Salt Lake Center
Sun 08:14:43 AM 42.9378 -107.4511 148° Southeast 485 558 31,000  Level Salt Lake Center
Sun 08:15:45 AM 42.8144 -107.3475 148° Southeast 492 566 31,000  Level Salt Lake Center
Sun 08:16:27 AM 42.7411 -107.2856 148° Southeast 487 560 31,000  Level Denver Center
Sun 08:17:27 AM 42.6169 -107.1833 149° Southeast 482 555 31,000  Level Denver Center
Sun 08:18:28 AM 42.5039 -107.0883 148° Southeast 479 551 31,000  Level Denver Center
Sun 08:19:28 AM 42.3933 -106.9989 149° Southeast 481 554 31,000  Level Denver Center
Sun 08:20:28 AM 42.2858 -106.9053 147° Southeast 481 554 31,000  Level Denver Center
Sun 08:21:28 AM 42.1625 -106.7931 146° Southeast 478 550 31,000  Level Denver Center
Sun 08:22:29 AM 42.0547 -106.6989 147° Southeast 481 554 31,000  Level Denver Center
Sun 08:23:29 AM 41.9489 -106.6047 146° Southeast 478 550 31,000  Level Denver Center
Sun 08:24:29 AM 41.8317 -106.5008 147° Southeast 477 549 31,000  Level Denver Center
Sun 08:25:30 AM 41.7261 -106.4097 147° Southeast 473 544 31,000  Level Denver Center
Sun 08:26:30 AM 41.6228 -106.3178 146° Southeast 468 539 31,000  Level Denver Center
Sun 08:27:42 AM 41.4836 -106.1964 147° Southeast 468 539 31,000  Level Denver Center
Sun 08:28:43 AM 41.3811 -106.1078 147° Southeast 464 534 31,000  Level Denver Center
Sun 08:29:43 AM 41.2586 -106.0006 147° Southeast 470 541 31,000  Level Denver Center
Sun 08:30:44 AM 41.1533 -105.9106 147° Southeast 471 542 31,000  Level Denver Center
Sun 08:31:44 AM 41.0492 -105.8208 147° Southeast 468 539 31,000 -1,150 Level Denver Center
Sun 08:32:44 AM 40.9289 -105.7172 147° Southeast 468 539 28,700 -2,479 Descending Denver Center
Sun 08:33:45 AM 40.8197 -105.6256 148° Southeast 466 536 26,000 -2,678 Descending Denver Center
Sun 08:34:45 AM 40.7167 -105.5369 147° Southeast 450 518 23,300 -2,600 Descending Denver Center
Sun 08:35:45 AM 40.6183 -105.4539 147° Southeast 426 490 20,800 -2,231 Descending Denver Center
Sun 08:36:46 AM 40.5508 -105.3464 130° Southeast 388 447 18,800 -1,736 Descending Denver Center
Sun 08:37:46 AM 40.4925 -105.2325 124° Southeast 376 433 17,300 -1,339 Descending Denver Center
Sun 08:38:47 AM 40.4400 -105.1314 124° Southeast 367 422 16,100 -1,240 Descending Denver Center
Sun 08:39:47 AM 40.3739 -105.0311 131° Southeast 364 419 14,800 -1,350 Descending Denver Center
Sun 08:40:47 AM 40.3083 -104.9242 129° Southeast 350 403 13,400 -1,339 Descending Denver Center
Sun 08:41:48 AM 40.2494 -104.8322 130° Southeast 331 381 12,100 -1,388 Descending Denver Center
Sun 08:42:48 AM 40.1858 -104.7569 138° Southeast 312 359 10,600 -1,550 Descending Denver Center
Sun 08:43:48 AM 40.1094 -104.7114 155° Southeast 301 346 9,000 -1,190 Descending Denver Center
Sun 08:44:49 AM 40.0347 -104.6972 172° South 265 305 8,200 -992 Descending Denver Center
Sun 08:45:49 AM 39.9750 -104.6953 179° South 212 244 7,000 -1,050 Descending Denver Center
Sun 08:46:49 AM 39.9297 -104.6953 180° South 167 192 6,100 -843 Descending Denver Center
Sun 08:47:50 AM 39.8883 -104.6958 181° South 151 174 5,300 -787 Descending Denver Center

Login

Don't have an account? Register now (free) for customized features, flight alerts, and more!